sensor_id;sensor_type;location;lat;lon;timestamp;temperature;humidity
42227;DHT22;27892;52.378;13.122;2023-04-03T00:09:49;5.30;52.00
42227;DHT22;27892;52.378;13.122;2023-04-03T00:12:15;5.20;51.90
42227;DHT22;27892;52.378;13.122;2023-04-03T00:14:41;5.20;51.90
42227;DHT22;27892;52.378;13.122;2023-04-03T00:17:07;5.20;52.00
42227;DHT22;27892;52.378;13.122;2023-04-03T00:19:32;5.20;52.00
42227;DHT22;27892;52.378;13.122;2023-04-03T00:21:58;5.20;51.90
42227;DHT22;27892;52.378;13.122;2023-04-03T00:24:24;5.20;51.90
42227;DHT22;27892;52.378;13.122;2023-04-03T00:26:50;5.20;51.60
42227;DHT22;27892;52.378;13.122;2023-04-03T00:29:15;5.20;51.70
42227;DHT22;27892;52.378;13.122;2023-04-03T00:31:41;5.20;51.80
42227;DHT22;27892;52.378;13.122;2023-04-03T00:34:07;5.20;51.80
42227;DHT22;27892;52.378;13.122;2023-04-03T00:36:32;5.20;52.10
42227;DHT22;27892;52.378;13.122;2023-04-03T00:38:58;5.20;51.60
42227;DHT22;27892;52.378;13.122;2023-04-03T00:41:24;5.20;51.70
42227;DHT22;27892;52.378;13.122;2023-04-03T00:43:50;5.20;51.70
42227;DHT22;27892;52.378;13.122;2023-04-03T00:46:16;5.20;51.70
42227;DHT22;27892;52.378;13.122;2023-04-03T00:48:44;5.10;51.40
42227;DHT22;27892;52.378;13.122;2023-04-03T00:51:18;5.10;51.50
42227;DHT22;27892;52.378;13.122;2023-04-03T00:53:52;5.10;51.40
42227;DHT22;27892;52.378;13.122;2023-04-03T00:56:21;5.10;51.40
42227;DHT22;27892;52.378;13.122;2023-04-03T00:58:53;5.10;51.30
42227;DHT22;27892;52.378;13.122;2023-04-03T01:01:25;5.10;51.30
42227;DHT22;27892;52.378;13.122;2023-04-03T01:03:52;5.10;51.20
42227;DHT22;27892;52.378;13.122;2023-04-03T01:06:20;5.10;51.20
42227;DHT22;27892;52.378;13.122;2023-04-03T01:08:48;5.00;51.10
42227;DHT22;27892;52.378;13.122;2023-04-03T01:11:15;5.00;51.40
42227;DHT22;27892;52.378;13.122;2023-04-03T01:13:41;4.90;51.20
42227;DHT22;27892;52.378;13.122;2023-04-03T01:16:07;4.90;51.40
42227;DHT22;27892;52.378;13.122;2023-04-03T01:18:34;4.80;51.40
42227;DHT22;27892;52.378;13.122;2023-04-03T01:23:56;4.80;51.50
42227;DHT22;27892;52.378;13.122;2023-04-03T01:26:23;4.80;51.70
42227;DHT22;27892;52.378;13.122;2023-04-03T01:28:49;4.70;51.50
42227;DHT22;27892;52.378;13.122;2023-04-03T01:34:04;4.60;51.80
42227;DHT22;27892;52.378;13.122;2023-04-03T01:36:32;4.50;51.80
42227;DHT22;27892;52.378;13.122;2023-04-03T01:38:59;4.50;52.00
42227;DHT22;27892;52.378;13.122;2023-04-03T01:41:26;4.50;52.00
42227;DHT22;27892;52.378;13.122;2023-04-03T01:43:52;4.40;52.00
42227;DHT22;27892;52.378;13.122;2023-04-03T01:46:18;4.40;52.10
42227;DHT22;27892;52.378;13.122;2023-04-03T01:48:45;4.40;52.40
42227;DHT22;27892;52.378;13.122;2023-04-03T01:51:11;4.40;52.30
42227;DHT22;27892;52.378;13.122;2023-04-03T01:53:36;4.30;52.30
42227;DHT22;27892;52.378;13.122;2023-04-03T01:56:03;4.30;52.60
42227;DHT22;27892;52.378;13.122;2023-04-03T01:58:29;4.20;52.50
42227;DHT22;27892;52.378;13.122;2023-04-03T02:00:54;4.20;52.70
42227;DHT22;27892;52.378;13.122;2023-04-03T02:03:21;4.20;52.80
42227;DHT22;27892;52.378;13.122;2023-04-03T02:05:47;4.20;52.80
42227;DHT22;27892;52.378;13.122;2023-04-03T02:08:12;4.10;52.60
42227;DHT22;27892;52.378;13.122;2023-04-03T02:10:39;4.10;52.90
42227;DHT22;27892;52.378;13.122;2023-04-03T02:13:05;4.10;52.90
42227;DHT22;27892;52.378;13.122;2023-04-03T02:15:31;4.00;53.40
42227;DHT22;27892;52.378;13.122;2023-04-03T02:17:57;4.00;53.00
42227;DHT22;27892;52.378;13.122;2023-04-03T02:20:22;4.00;53.10
42227;DHT22;27892;52.378;13.122;2023-04-03T02:22:48;4.00;53.20
42227;DHT22;27892;52.378;13.122;2023-04-03T02:25:14;3.90;53.50
42227;DHT22;27892;52.378;13.122;2023-04-03T02:27:40;4.00;53.70
42227;DHT22;27892;52.378;13.122;2023-04-03T02:30:06;4.00;53.60
42227;DHT22;27892;52.378;13.122;2023-04-03T02:32:32;4.00;53.60
42227;DHT22;27892;52.378;13.122;2023-04-03T02:34:58;4.00;53.70
42227;DHT22;27892;52.378;13.122;2023-04-03T02:37:24;4.00;53.70
42227;DHT22;27892;52.378;13.122;2023-04-03T02:39:50;4.00;53.80
42227;DHT22;27892;52.378;13.122;2023-04-03T02:42:15;3.90;53.90
42227;DHT22;27892;52.378;13.122;2023-04-03T02:44:41;4.00;54.10
42227;DHT22;27892;52.378;13.122;2023-04-03T02:47:07;4.00;53.90
42227;DHT22;27892;52.378;13.122;2023-04-03T02:49:33;4.00;54.20
42227;DHT22;27892;52.378;13.122;2023-04-03T02:51:59;4.00;53.60
42227;DHT22;27892;52.378;13.122;2023-04-03T02:54:24;3.90;53.70
42227;DHT22;27892;52.378;13.122;2023-04-03T02:57:12;3.90;53.80
42227;DHT22;27892;52.378;13.122;2023-04-03T02:59:56;3.90;53.90
42227;DHT22;27892;52.378;13.122;2023-04-03T03:02:41;3.90;54.00
42227;DHT22;27892;52.378;13.122;2023-04-03T03:05:07;3.80;53.80
42227;DHT22;27892;52.378;13.122;2023-04-03T03:07:33;3.80;54.00
42227;DHT22;27892;52.378;13.122;2023-04-03T03:09:59;3.80;54.30
42227;DHT22;27892;52.378;13.122;2023-04-03T03:12:25;3.80;54.30
42227;DHT22;27892;52.378;13.122;2023-04-03T03:14:51;3.70;54.40
42227;DHT22;27892;52.378;13.122;2023-04-03T03:17:17;3.70;54.50
42227;DHT22;27892;52.378;13.122;2023-04-03T03:19:43;3.70;54.70
42227;DHT22;27892;52.378;13.122;2023-04-03T03:22:11;3.70;54.90
42227;DHT22;27892;52.378;13.122;2023-04-03T03:24:36;3.60;54.70
42227;DHT22;27892;52.378;13.122;2023-04-03T03:27:02;3.60;55.00
42227;DHT22;27892;52.378;13.122;2023-04-03T03:29:28;3.60;54.90
42227;DHT22;27892;52.378;13.122;2023-04-03T03:31:53;3.60;54.90
42227;DHT22;27892;52.378;13.122;2023-04-03T03:34:19;3.60;54.90
42227;DHT22;27892;52.378;13.122;2023-04-03T03:36:45;3.60;55.20
42227;DHT22;27892;52.378;13.122;2023-04-03T03:39:11;3.60;55.20
42227;DHT22;27892;52.378;13.122;2023-04-03T03:41:37;3.60;55.20
42227;DHT22;27892;52.378;13.122;2023-04-03T03:44:02;3.60;55.00
42227;DHT22;27892;52.378;13.122;2023-04-03T03:46:28;3.60;55.20
42227;DHT22;27892;52.378;13.122;2023-04-03T03:48:54;3.60;55.60
42227;DHT22;27892;52.378;13.122;2023-04-03T03:51:19;3.60;55.60
42227;DHT22;27892;52.378;13.122;2023-04-03T03:53:45;3.60;55.60
42227;DHT22;27892;52.378;13.122;2023-04-03T03:56:11;3.60;55.70
42227;DHT22;27892;52.378;13.122;2023-04-03T03:58:37;3.70;55.80
42227;DHT22;27892;52.378;13.122;2023-04-03T04:01:04;3.70;55.60
42227;DHT22;27892;52.378;13.122;2023-04-03T04:03:31;3.70;55.90
42227;DHT22;27892;52.378;13.122;2023-04-03T04:05:57;3.70;55.80
42227;DHT22;27892;52.378;13.122;2023-04-03T04:08:23;3.70;55.80
42227;DHT22;27892;52.378;13.122;2023-04-03T04:10:49;3.70;55.90
42227;DHT22;27892;52.378;13.122;2023-04-03T04:13:16;3.70;55.90
42227;DHT22;27892;52.378;13.122;2023-04-03T04:15:42;3.70;55.80
42227;DHT22;27892;52.378;13.122;2023-04-03T04:18:08;3.70;56.00
42227;DHT22;27892;52.378;13.122;2023-04-03T04:20:34;3.70;56.00
42227;DHT22;27892;52.378;13.122;2023-04-03T04:23:00;3.70;55.90
42227;DHT22;27892;52.378;13.122;2023-04-03T04:25:25;3.70;56.00
42227;DHT22;27892;52.378;13.122;2023-04-03T04:27:51;3.70;56.10
42227;DHT22;27892;52.378;13.122;2023-04-03T04:30:17;3.70;55.90
42227;DHT22;27892;52.378;13.122;2023-04-03T04:32:43;3.70;55.90
42227;DHT22;27892;52.378;13.122;2023-04-03T04:35:09;3.70;56.00
42227;DHT22;27892;52.378;13.122;2023-04-03T04:37:35;3.70;56.00
42227;DHT22;27892;52.378;13.122;2023-04-03T04:40:00;3.70;56.00
42227;DHT22;27892;52.378;13.122;2023-04-03T04:42:26;3.70;55.90
42227;DHT22;27892;52.378;13.122;2023-04-03T04:44:52;3.70;56.00
42227;DHT22;27892;52.378;13.122;2023-04-03T04:47:18;3.70;56.00
42227;DHT22;27892;52.378;13.122;2023-04-03T04:49:43;3.70;56.50
42227;DHT22;27892;52.378;13.122;2023-04-03T04:52:09;3.70;55.90
42227;DHT22;27892;52.378;13.122;2023-04-03T04:54:35;3.70;55.90
42227;DHT22;27892;52.378;13.122;2023-04-03T04:57:01;3.80;55.80
42227;DHT22;27892;52.378;13.122;2023-04-03T04:59:27;3.80;55.90
42227;DHT22;27892;52.378;13.122;2023-04-03T05:01:52;3.80;55.90
42227;DHT22;27892;52.378;13.122;2023-04-03T05:04:18;3.80;55.80
42227;DHT22;27892;52.378;13.122;2023-04-03T05:06:44;3.90;55.80
42227;DHT22;27892;52.378;13.122;2023-04-03T05:09:10;3.80;55.80
42227;DHT22;27892;52.378;13.122;2023-04-03T05:11:35;3.90;55.90
42227;DHT22;27892;52.378;13.122;2023-04-03T05:14:01;3.90;55.90
42227;DHT22;27892;52.378;13.122;2023-04-03T05:16:27;4.00;56.00
42227;DHT22;27892;52.378;13.122;2023-04-03T05:18:53;4.00;56.00
42227;DHT22;27892;52.378;13.122;2023-04-03T05:21:18;4.10;56.00
42227;DHT22;27892;52.378;13.122;2023-04-03T05:23:44;4.10;55.90
42227;DHT22;27892;52.378;13.122;2023-04-03T05:26:10;4.20;56.10
42227;DHT22;27892;52.378;13.122;2023-04-03T05:28:36;4.20;56.10
42227;DHT22;27892;52.378;13.122;2023-04-03T05:31:31;4.30;56.30
42227;DHT22;27892;52.378;13.122;2023-04-03T05:33:57;4.50;56.80
42227;DHT22;27892;52.378;13.122;2023-04-03T05:36:22;4.50;56.00
42227;DHT22;27892;52.378;13.122;2023-04-03T05:38:48;4.60;56.00
42227;DHT22;27892;52.378;13.122;2023-04-03T05:41:15;4.70;56.00
42227;DHT22;27892;52.378;13.122;2023-04-03T05:43:41;4.70;55.90
42227;DHT22;27892;52.378;13.122;2023-04-03T05:46:11;4.80;55.80
42227;DHT22;27892;52.378;13.122;2023-04-03T05:48:37;4.90;55.80
42227;DHT22;27892;52.378;13.122;2023-04-03T05:51:04;5.00;55.50
42227;DHT22;27892;52.378;13.122;2023-04-03T05:53:36;5.20;55.60
42227;DHT22;27892;52.378;13.122;2023-04-03T05:56:05;5.30;55.50
42227;DHT22;27892;52.378;13.122;2023-04-03T05:58:30;5.50;55.40
42227;DHT22;27892;52.378;13.122;2023-04-03T06:00:56;5.70;55.40
42227;DHT22;27892;52.378;13.122;2023-04-03T06:03:23;5.80;55.10
42227;DHT22;27892;52.378;13.122;2023-04-03T06:05:49;6.00;54.70
42227;DHT22;27892;52.378;13.122;2023-04-03T06:08:14;6.20;54.90
42227;DHT22;27892;52.378;13.122;2023-04-03T06:10:40;6.50;54.70
42227;DHT22;27892;52.378;13.122;2023-04-03T06:13:06;7.00;55.40
42227;DHT22;27892;52.378;13.122;2023-04-03T06:15:32;9.40;56.60
42227;DHT22;27892;52.378;13.122;2023-04-03T06:17:59;12.50;50.50
42227;DHT22;27892;52.378;13.122;2023-04-03T06:20:25;14.60;45.30
42227;DHT22;27892;52.378;13.122;2023-04-03T06:22:51;16.10;41.50
42227;DHT22;27892;52.378;13.122;2023-04-03T06:25:17;17.90;40.00
42227;DHT22;27892;52.378;13.122;2023-04-03T06:27:45;19.40;35.90
42227;DHT22;27892;52.378;13.122;2023-04-03T06:30:11;20.30;32.90
42227;DHT22;27892;52.378;13.122;2023-04-03T06:32:37;20.00;31.10
42227;DHT22;27892;52.378;13.122;2023-04-03T06:35:04;19.20;32.60
42227;DHT22;27892;52.378;13.122;2023-04-03T06:37:30;20.40;32.20
42227;DHT22;27892;52.378;13.122;2023-04-03T06:39:56;21.60;29.20
42227;DHT22;27892;52.378;13.122;2023-04-03T06:42:22;22.20;27.80
42227;DHT22;27892;52.378;13.122;2023-04-03T06:44:48;21.90;27.60
42227;DHT22;27892;52.378;13.122;2023-04-03T06:47:15;20.40;28.60
42227;DHT22;27892;52.378;13.122;2023-04-03T06:49:41;19.70;29.10
42227;DHT22;27892;52.378;13.122;2023-04-03T06:52:10;20.60;28.40
42227;DHT22;27892;52.378;13.122;2023-04-03T06:54:39;22.10;27.40
42227;DHT22;27892;52.378;13.122;2023-04-03T06:57:06;23.20;26.40
42227;DHT22;27892;52.378;13.122;2023-04-03T06:59:32;24.10;25.60
42227;DHT22;27892;52.378;13.122;2023-04-03T07:01:57;25.10;24.50
42227;DHT22;27892;52.378;13.122;2023-04-03T07:04:25;25.50;22.50
42227;DHT22;27892;52.378;13.122;2023-04-03T07:06:51;25.90;22.90
42227;DHT22;27892;52.378;13.122;2023-04-03T07:09:18;26.40;22.50
42227;DHT22;27892;52.378;13.122;2023-04-03T07:11:43;26.90;21.40
42227;DHT22;27892;52.378;13.122;2023-04-03T07:14:09;25.60;21.60
42227;DHT22;27892;52.378;13.122;2023-04-03T07:16:35;24.30;21.10
42227;DHT22;27892;52.378;13.122;2023-04-03T07:19:01;24.00;21.90
42227;DHT22;27892;52.378;13.122;2023-04-03T07:21:28;24.20;21.60
42227;DHT22;27892;52.378;13.122;2023-04-03T07:23:54;23.10;21.80
42227;DHT22;27892;52.378;13.122;2023-04-03T07:26:21;20.50;20.00
42227;DHT22;27892;52.378;13.122;2023-04-03T07:28:47;18.00;22.80
42227;DHT22;27892;52.378;13.122;2023-04-03T07:31:15;17.30;23.70
42227;DHT22;27892;52.378;13.122;2023-04-03T07:33:41;15.80;25.20
42227;DHT22;27892;52.378;13.122;2023-04-03T07:36:09;16.60;26.10
42227;DHT22;27892;52.378;13.122;2023-04-03T07:38:36;16.00;25.90
42227;DHT22;27892;52.378;13.122;2023-04-03T07:41:02;15.20;26.60
42227;DHT22;27892;52.378;13.122;2023-04-03T07:43:28;14.40;27.20
42227;DHT22;27892;52.378;13.122;2023-04-03T07:45:54;13.50;27.60
42227;DHT22;27892;52.378;13.122;2023-04-03T07:48:22;12.70;28.00
42227;DHT22;27892;52.378;13.122;2023-04-03T07:50:47;12.00;28.40
42227;DHT22;27892;52.378;13.122;2023-04-03T07:53:13;11.50;29.10
42227;DHT22;27892;52.378;13.122;2023-04-03T07:55:39;11.10;29.80
42227;DHT22;27892;52.378;13.122;2023-04-03T07:58:12;11.00;31.10
42227;DHT22;27892;52.378;13.122;2023-04-03T08:00:40;12.10;31.00
42227;DHT22;27892;52.378;13.122;2023-04-03T08:03:06;12.20;30.00
42227;DHT22;27892;52.378;13.122;2023-04-03T08:05:37;12.90;31.50
42227;DHT22;27892;52.378;13.122;2023-04-03T08:08:03;14.20;29.00
42227;DHT22;27892;52.378;13.122;2023-04-03T08:10:30;16.90;28.50
42227;DHT22;27892;52.378;13.122;2023-04-03T08:12:56;18.60;27.20
42227;DHT22;27892;52.378;13.122;2023-04-03T08:15:22;20.40;25.30
42227;DHT22;27892;52.378;13.122;2023-04-03T08:17:47;19.20;22.60
42227;DHT22;27892;52.378;13.122;2023-04-03T08:20:13;17.40;23.50
42227;DHT22;27892;52.378;13.122;2023-04-03T08:22:39;16.00;23.40
42227;DHT22;27892;52.378;13.122;2023-04-03T08:25:05;14.70;24.40
42227;DHT22;27892;52.378;13.122;2023-04-03T08:27:31;13.50;25.20
42227;DHT22;27892;52.378;13.122;2023-04-03T08:29:57;13.60;27.10
42227;DHT22;27892;52.378;13.122;2023-04-03T08:32:22;14.70;28.50
42227;DHT22;27892;52.378;13.122;2023-04-03T08:34:48;15.60;28.00
42227;DHT22;27892;52.378;13.122;2023-04-03T08:37:14;16.00;26.40
42227;DHT22;27892;52.378;13.122;2023-04-03T08:39:41;15.60;26.10
42227;DHT22;27892;52.378;13.122;2023-04-03T08:45:05;14.30;26.90
42227;DHT22;27892;52.378;13.122;2023-04-03T08:47:47;13.50;27.60
42227;DHT22;27892;52.378;13.122;2023-04-03T08:50:20;13.20;28.50
42227;DHT22;27892;52.378;13.122;2023-04-03T08:52:55;12.40;27.40
42227;DHT22;27892;52.378;13.122;2023-04-03T08:55:27;11.80;27.30
42227;DHT22;27892;52.378;13.122;2023-04-03T08:58:06;12.60;28.90
42227;DHT22;27892;52.378;13.122;2023-04-03T09:00:51;13.60;27.70
42227;DHT22;27892;52.378;13.122;2023-04-03T09:03:20;13.50;26.70
42227;DHT22;27892;52.378;13.122;2023-04-03T09:06:00;12.60;26.70
42227;DHT22;27892;52.378;13.122;2023-04-03T09:08:45;12.00;28.10
42227;DHT22;27892;52.378;13.122;2023-04-03T09:11:25;11.60;28.40
42227;DHT22;27892;52.378;13.122;2023-04-03T09:14:07;11.40;29.00
42227;DHT22;27892;52.378;13.122;2023-04-03T09:19:38;11.30;31.00
42227;DHT22;27892;52.378;13.122;2023-04-03T09:22:25;11.30;30.70
42227;DHT22;27892;52.378;13.122;2023-04-03T09:25:11;11.40;31.30
42227;DHT22;27892;52.378;13.122;2023-04-03T09:27:38;11.40;30.60
42227;DHT22;27892;52.378;13.122;2023-04-03T09:30:04;11.40;31.20
42227;DHT22;27892;52.378;13.122;2023-04-03T09:32:35;11.20;30.30
42227;DHT22;27892;52.378;13.122;2023-04-03T09:35:09;11.20;32.20
42227;DHT22;27892;52.378;13.122;2023-04-03T09:38:28;11.30;32.10
42227;DHT22;27892;52.378;13.122;2023-04-03T09:40:35;11.40;30.80
42227;DHT22;27892;52.378;13.122;2023-04-03T09:45:46;11.30;31.40
42227;DHT22;27892;52.378;13.122;2023-04-03T09:50:58;11.40;31.40
42227;DHT22;27892;52.378;13.122;2023-04-03T09:58:46;12.00;31.70
42227;DHT22;27892;52.378;13.122;2023-04-03T10:01:36;12.00;31.10
42227;DHT22;27892;52.378;13.122;2023-04-03T10:04:11;12.10;30.90
42227;DHT22;27892;52.378;13.122;2023-04-03T10:06:45;12.20;31.10
42227;DHT22;27892;52.378;13.122;2023-04-03T10:09:23;12.30;30.70
42227;DHT22;27892;52.378;13.122;2023-04-03T10:12:07;12.40;31.10
42227;DHT22;27892;52.378;13.122;2023-04-03T10:14:39;13.00;31.60
42227;DHT22;27892;52.378;13.122;2023-04-03T10:19:43;14.50;30.90
42227;DHT22;27892;52.378;13.122;2023-04-03T10:28:01;15.10;28.40
42227;DHT22;27892;52.378;13.122;2023-04-03T10:30:36;15.80;30.00
42227;DHT22;27892;52.378;13.122;2023-04-03T10:36:10;19.40;28.30
42227;DHT22;27892;52.378;13.122;2023-04-03T10:44:26;19.00;24.00
42227;DHT22;27892;52.378;13.122;2023-04-03T10:47:04;17.30;24.50
42227;DHT22;27892;52.378;13.122;2023-04-03T10:52:23;15.70;25.80
42227;DHT22;27892;52.378;13.122;2023-04-03T10:57:39;14.40;25.60
42227;DHT22;27892;52.378;13.122;2023-04-03T11:00:16;14.20;26.80
42227;DHT22;27892;52.378;13.122;2023-04-03T11:03:00;14.20;26.70
42227;DHT22;27892;52.378;13.122;2023-04-03T11:05:49;14.00;26.90
42227;DHT22;27892;52.378;13.122;2023-04-03T11:08:43;13.80;27.90
42227;DHT22;27892;52.378;13.122;2023-04-03T11:11:17;13.50;27.30
42227;DHT22;27892;52.378;13.122;2023-04-03T11:16:30;13.20;28.60
42227;DHT22;27892;52.378;13.122;2023-04-03T11:19:01;13.30;28.70
42227;DHT22;27892;52.378;13.122;2023-04-03T11:21:33;13.30;28.70
42227;DHT22;27892;52.378;13.122;2023-04-03T11:24:03;13.30;27.90
42227;DHT22;27892;52.378;13.122;2023-04-03T11:26:36;13.20;27.20
42227;DHT22;27892;52.378;13.122;2023-04-03T11:29:14;13.20;28.30
42227;DHT22;27892;52.378;13.122;2023-04-03T11:34:49;13.50;27.90
42227;DHT22;27892;52.378;13.122;2023-04-03T11:37:59;13.40;27.70
42227;DHT22;27892;52.378;13.122;2023-04-03T11:40:33;13.30;28.30
42227;DHT22;27892;52.378;13.122;2023-04-03T11:48:05;13.60;27.90
42227;DHT22;27892;52.378;13.122;2023-04-03T12:08:26;12.70;28.10
42227;DHT22;27892;52.378;13.122;2023-04-03T12:21:21;12.30;29.40
42227;DHT22;27892;52.378;13.122;2023-04-03T12:26:40;12.50;29.60
42227;DHT22;27892;52.378;13.122;2023-04-03T12:35:14;12.70;29.00
42227;DHT22;27892;52.378;13.122;2023-04-03T12:38:12;12.60;29.00
42227;DHT22;27892;52.378;13.122;2023-04-03T12:48:38;12.50;29.10
42227;DHT22;27892;52.378;13.122;2023-04-03T12:51:05;12.50;30.10
42227;DHT22;27892;52.378;13.122;2023-04-03T12:53:35;12.60;30.20
42227;DHT22;27892;52.378;13.122;2023-04-03T12:56:25;12.60;29.50
42227;DHT22;27892;52.378;13.122;2023-04-03T12:58:53;12.40;29.00
42227;DHT22;27892;52.378;13.122;2023-04-03T13:01:23;12.30;29.30
42227;DHT22;27892;52.378;13.122;2023-04-03T13:03:53;12.30;29.30
42227;DHT22;27892;52.378;13.122;2023-04-03T13:06:23;12.30;29.30
42227;DHT22;27892;52.378;13.122;2023-04-03T13:08:54;12.20;29.40
42227;DHT22;27892;52.378;13.122;2023-04-03T13:11:27;12.30;29.50
42227;DHT22;27892;52.378;13.122;2023-04-03T13:13:55;12.30;29.60
42227;DHT22;27892;52.378;13.122;2023-04-03T13:16:21;12.30;29.90
42227;DHT22;27892;52.378;13.122;2023-04-03T13:18:52;12.30;30.70
42227;DHT22;27892;52.378;13.122;2023-04-03T13:21:29;12.30;30.50
42227;DHT22;27892;52.378;13.122;2023-04-03T13:24:00;12.20;31.10
42227;DHT22;27892;52.378;13.122;2023-04-03T13:26:31;12.20;31.00
42227;DHT22;27892;52.378;13.122;2023-04-03T13:29:06;12.10;31.00
42227;DHT22;27892;52.378;13.122;2023-04-03T13:31:36;12.10;30.90
42227;DHT22;27892;52.378;13.122;2023-04-03T13:36:39;11.90;30.50
42227;DHT22;27892;52.378;13.122;2023-04-03T13:41:42;12.10;30.10
42227;DHT22;27892;52.378;13.122;2023-04-03T13:46:52;12.30;29.10
42227;DHT22;27892;52.378;13.122;2023-04-03T13:49:29;12.20;29.00
42227;DHT22;27892;52.378;13.122;2023-04-03T13:51:56;12.10;29.00
42227;DHT22;27892;52.378;13.122;2023-04-03T13:54:34;11.90;29.50
42227;DHT22;27892;52.378;13.122;2023-04-03T13:57:02;11.90;29.60
42227;DHT22;27892;52.378;13.122;2023-04-03T13:59:35;11.90;30.00
42227;DHT22;27892;52.378;13.122;2023-04-03T14:04:54;11.80;30.20
42227;DHT22;27892;52.378;13.122;2023-04-03T14:07:22;11.70;30.40
42227;DHT22;27892;52.378;13.122;2023-04-03T14:09:48;11.60;30.80
42227;DHT22;27892;52.378;13.122;2023-04-03T14:12:32;11.50;30.90
42227;DHT22;27892;52.378;13.122;2023-04-03T14:15:02;11.50;30.90
42227;DHT22;27892;52.378;13.122;2023-04-03T14:17:28;11.30;31.10
42227;DHT22;27892;52.378;13.122;2023-04-03T14:19:55;11.30;31.60
42227;DHT22;27892;52.378;13.122;2023-04-03T14:22:22;11.30;32.20
42227;DHT22;27892;52.378;13.122;2023-04-03T14:24:49;11.30;32.20
42227;DHT22;27892;52.378;13.122;2023-04-03T14:27:19;11.30;32.20
42227;DHT22;27892;52.378;13.122;2023-04-03T14:29:46;11.30;32.20
42227;DHT22;27892;52.378;13.122;2023-04-03T14:32:13;11.20;31.40
42227;DHT22;27892;52.378;13.122;2023-04-03T14:34:40;11.20;32.40
42227;DHT22;27892;52.378;13.122;2023-04-03T14:37:11;11.20;31.90
42227;DHT22;27892;52.378;13.122;2023-04-03T14:39:37;11.20;32.50
42227;DHT22;27892;52.378;13.122;2023-04-03T14:42:03;11.20;32.20
42227;DHT22;27892;52.378;13.122;2023-04-03T14:44:29;11.20;31.80
42227;DHT22;27892;52.378;13.122;2023-04-03T14:46:55;11.10;32.40
42227;DHT22;27892;52.378;13.122;2023-04-03T14:49:25;11.00;32.50
42227;DHT22;27892;52.378;13.122;2023-04-03T14:51:52;10.90;32.90
42227;DHT22;27892;52.378;13.122;2023-04-03T14:54:21;10.90;33.20
42227;DHT22;27892;52.378;13.122;2023-04-03T14:56:51;10.90;33.20
42227;DHT22;27892;52.378;13.122;2023-04-03T14:59:17;10.80;33.40
42227;DHT22;27892;52.378;13.122;2023-04-03T15:01:45;10.70;33.00
42227;DHT22;27892;52.378;13.122;2023-04-03T15:04:19;10.70;33.40
42227;DHT22;27892;52.378;13.122;2023-04-03T15:06:47;10.80;34.10
42227;DHT22;27892;52.378;13.122;2023-04-03T15:09:23;10.90;34.50
42227;DHT22;27892;52.378;13.122;2023-04-03T15:11:51;11.00;33.30
42227;DHT22;27892;52.378;13.122;2023-04-03T15:14:17;10.90;33.30
42227;DHT22;27892;52.378;13.122;2023-04-03T15:16:43;10.90;33.40
42227;DHT22;27892;52.378;13.122;2023-04-03T15:19:10;10.90;33.00
42227;DHT22;27892;52.378;13.122;2023-04-03T15:21:36;10.80;32.70
42227;DHT22;27892;52.378;13.122;2023-04-03T15:24:03;10.80;33.40
42227;DHT22;27892;52.378;13.122;2023-04-03T15:26:29;10.90;32.70
42227;DHT22;27892;52.378;13.122;2023-04-03T15:28:55;11.00;33.20
42227;DHT22;27892;52.378;13.122;2023-04-03T15:31:21;11.10;32.80
42227;DHT22;27892;52.378;13.122;2023-04-03T15:33:47;11.20;32.90
42227;DHT22;27892;52.378;13.122;2023-04-03T15:36:13;11.10;32.10
42227;DHT22;27892;52.378;13.122;2023-04-03T15:38:38;10.90;32.30
42227;DHT22;27892;52.378;13.122;2023-04-03T15:41:04;10.90;32.90
42227;DHT22;27892;52.378;13.122;2023-04-03T15:43:30;10.90;33.30
42227;DHT22;27892;52.378;13.122;2023-04-03T15:45:57;10.90;33.50
42227;DHT22;27892;52.378;13.122;2023-04-03T15:48:25;10.80;33.40
42227;DHT22;27892;52.378;13.122;2023-04-03T15:50:51;10.70;33.70
42227;DHT22;27892;52.378;13.122;2023-04-03T15:53:17;10.70;33.90
42227;DHT22;27892;52.378;13.122;2023-04-03T15:55:42;10.60;33.80
42227;DHT22;27892;52.378;13.122;2023-04-03T15:58:08;10.50;34.30
42227;DHT22;27892;52.378;13.122;2023-04-03T16:00:35;10.40;34.30
42227;DHT22;27892;52.378;13.122;2023-04-03T16:03:05;10.50;35.00
42227;DHT22;27892;52.378;13.122;2023-04-03T16:05:32;10.40;34.80
42227;DHT22;27892;52.378;13.122;2023-04-03T16:07:59;10.40;35.20
42227;DHT22;27892;52.378;13.122;2023-04-03T16:10:26;10.40;34.90
42227;DHT22;27892;52.378;13.122;2023-04-03T16:12:51;10.30;35.40
42227;DHT22;27892;52.378;13.122;2023-04-03T16:15:17;10.20;35.60
42227;DHT22;27892;52.378;13.122;2023-04-03T16:17:43;10.10;35.30
42227;DHT22;27892;52.378;13.122;2023-04-03T16:20:11;10.00;35.20
42227;DHT22;27892;52.378;13.122;2023-04-03T16:22:37;9.90;36.50
42227;DHT22;27892;52.378;13.122;2023-04-03T16:25:05;9.80;36.60
42227;DHT22;27892;52.378;13.122;2023-04-03T16:27:31;9.80;37.00
42227;DHT22;27892;52.378;13.122;2023-04-03T16:29:57;9.80;37.30
42227;DHT22;27892;52.378;13.122;2023-04-03T16:32:27;9.80;37.80
42227;DHT22;27892;52.378;13.122;2023-04-03T16:34:54;9.80;37.70
42227;DHT22;27892;52.378;13.122;2023-04-03T16:37:20;9.80;37.30
42227;DHT22;27892;52.378;13.122;2023-04-03T16:39:45;9.80;37.90
42227;DHT22;27892;52.378;13.122;2023-04-03T16:42:11;9.70;38.00
42227;DHT22;27892;52.378;13.122;2023-04-03T16:44:37;9.80;38.30
42227;DHT22;27892;52.378;13.122;2023-04-03T16:47:05;9.70;38.00
42227;DHT22;27892;52.378;13.122;2023-04-03T16:49:30;9.70;37.90
42227;DHT22;27892;52.378;13.122;2023-04-03T16:51:59;9.60;37.60
42227;DHT22;27892;52.378;13.122;2023-04-03T16:54:26;9.50;38.10
42227;DHT22;27892;52.378;13.122;2023-04-03T16:56:52;9.40;38.30
42227;DHT22;27892;52.378;13.122;2023-04-03T16:59:18;9.30;38.60
42227;DHT22;27892;52.378;13.122;2023-04-03T17:01:44;9.30;38.80
42227;DHT22;27892;52.378;13.122;2023-04-03T17:04:10;9.30;39.00
42227;DHT22;27892;52.378;13.122;2023-04-03T17:06:36;9.20;39.60
42227;DHT22;27892;52.378;13.122;2023-04-03T17:09:02;9.10;39.70
42227;DHT22;27892;52.378;13.122;2023-04-03T17:11:29;9.10;39.60
42227;DHT22;27892;52.378;13.122;2023-04-03T17:13:55;9.00;39.60
42227;DHT22;27892;52.378;13.122;2023-04-03T17:16:21;9.00;39.90
42227;DHT22;27892;52.378;13.122;2023-04-03T17:18:48;9.00;39.90
42227;DHT22;27892;52.378;13.122;2023-04-03T17:21:14;9.00;40.10
42227;DHT22;27892;52.378;13.122;2023-04-03T17:23:42;9.00;40.30
42227;DHT22;27892;52.378;13.122;2023-04-03T17:26:09;9.10;40.30
42227;DHT22;27892;52.378;13.122;2023-04-03T17:28:35;9.10;40.30
42227;DHT22;27892;52.378;13.122;2023-04-03T17:31:02;9.10;40.10